sensor_id;sensor_type;location;lat;lon;timestamp;P1;durP1;ratioP1;P2;durP2;ratioP2
56670;SDS011;42545;50.054;8.306;2023-04-05T13:58:01;24.65;;;2.58;;
56670;SDS011;42545;50.054;8.306;2023-04-05T14:00:28;6.93;;;1.55;;
56670;SDS011;42545;50.054;8.306;2023-04-05T14:02:55;2.80;;;1.85;;
56670;SDS011;42545;50.054;8.306;2023-04-05T14:05:22;2.17;;;1.58;;
56670;SDS011;42545;50.054;8.306;2023-04-05T14:07:48;2.40;;;1.40;;
56670;SDS011;42545;50.054;8.306;2023-04-05T14:10:15;2.17;;;1.58;;
56670;SDS011;42545;50.054;8.306;2023-04-05T14:12:43;3.83;;;1.63;;
56670;SDS011;42545;50.054;8.306;2023-04-05T14:15:11;2.88;;;1.90;;
56670;SDS011;42545;50.054;8.306;2023-04-05T14:17:38;3.00;;;2.05;;
56670;SDS011;42545;50.054;8.306;2023-04-05T14:20:05;5.20;;;3.60;;
56670;SDS011;42545;50.054;8.306;2023-04-05T14:22:33;2.90;;;2.00;;
56670;SDS011;42545;50.054;8.306;2023-04-05T14:25:02;4.72;;;2.83;;
56670;SDS011;42545;50.054;8.306;2023-04-05T14:27:29;2.63;;;2.00;;
56670;SDS011;42545;50.054;8.306;2023-04-05T14:29:55;2.90;;;2.03;;
56670;SDS011;42545;50.054;8.306;2023-04-05T14:32:24;2.70;;;2.22;;
56670;SDS011;42545;50.054;8.306;2023-04-05T14:34:51;3.67;;;2.67;;
56670;SDS011;42545;50.054;8.306;2023-04-05T14:37:18;2.33;;;1.73;;
56670;SDS011;42545;50.054;8.306;2023-04-05T14:39:44;3.25;;;2.22;;
56670;SDS011;42545;50.054;8.306;2023-04-05T14:42:12;3.80;;;2.00;;
56670;SDS011;42545;50.054;8.306;2023-04-05T14:44:38;3.92;;;2.28;;
56670;SDS011;42545;50.054;8.306;2023-04-05T14:47:05;3.47;;;2.15;;
56670;SDS011;42545;50.054;8.306;2023-04-05T14:49:33;2.75;;;1.50;;
56670;SDS011;42545;50.054;8.306;2023-04-05T14:52:00;1.58;;;1.25;;
56670;SDS011;42545;50.054;8.306;2023-04-05T14:54:27;2.75;;;2.20;;
56670;SDS011;42545;50.054;8.306;2023-04-05T14:56:54;3.63;;;2.17;;
56670;SDS011;42545;50.054;8.306;2023-04-05T14:59:24;3.40;;;1.98;;
56670;SDS011;42545;50.054;8.306;2023-04-05T15:01:50;2.15;;;1.60;;
56670;SDS011;42545;50.054;8.306;2023-04-05T15:04:18;5.22;;;2.85;;
56670;SDS011;42545;50.054;8.306;2023-04-05T15:06:47;4.80;;;3.40;;
56670;SDS011;42545;50.054;8.306;2023-04-05T15:09:13;4.32;;;2.75;;
56670;SDS011;42545;50.054;8.306;2023-04-05T15:11:40;7.25;;;3.58;;
56670;SDS011;42545;50.054;8.306;2023-04-05T15:14:07;4.50;;;3.35;;
56670;SDS011;42545;50.054;8.306;2023-04-05T15:16:34;2.85;;;2.40;;
56670;SDS011;42545;50.054;8.306;2023-04-05T15:19:01;5.45;;;2.50;;
56670;SDS011;42545;50.054;8.306;2023-04-05T15:21:27;4.00;;;2.22;;
56670;SDS011;42545;50.054;8.306;2023-04-05T15:23:56;3.17;;;1.92;;
56670;SDS011;42545;50.054;8.306;2023-04-05T15:26:23;4.57;;;2.72;;
56670;SDS011;42545;50.054;8.306;2023-04-05T15:28:50;3.60;;;3.10;;
56670;SDS011;42545;50.054;8.306;2023-04-05T15:31:17;4.07;;;2.00;;
56670;SDS011;42545;50.054;8.306;2023-04-05T15:33:43;2.22;;;1.90;;
56670;SDS011;42545;50.054;8.306;2023-04-05T15:36:11;8.05;;;3.70;;
56670;SDS011;42545;50.054;8.306;2023-04-05T15:38:38;3.22;;;2.47;;
56670;SDS011;42545;50.054;8.306;2023-04-05T15:41:06;3.10;;;1.88;;
56670;SDS011;42545;50.054;8.306;2023-04-05T15:43:33;6.60;;;3.25;;
56670;SDS011;42545;50.054;8.306;2023-04-05T15:46:00;2.33;;;2.10;;
56670;SDS011;42545;50.054;8.306;2023-04-05T15:48:28;2.22;;;1.70;;
56670;SDS011;42545;50.054;8.306;2023-04-05T15:50:55;1.92;;;1.65;;
56670;SDS011;42545;50.054;8.306;2023-04-05T15:53:22;5.32;;;2.15;;
56670;SDS011;42545;50.054;8.306;2023-04-05T15:55:49;4.63;;;3.17;;
56670;SDS011;42545;50.054;8.306;2023-04-05T15:58:19;2.83;;;2.22;;
56670;SDS011;42545;50.054;8.306;2023-04-05T16:00:46;3.88;;;2.50;;
56670;SDS011;42545;50.054;8.306;2023-04-05T16:03:13;2.65;;;1.83;;
56670;SDS011;42545;50.054;8.306;2023-04-05T16:05:40;3.38;;;2.35;;
56670;SDS011;42545;50.054;8.306;2023-04-05T16:08:07;2.78;;;2.00;;
56670;SDS011;42545;50.054;8.306;2023-04-05T16:10:33;3.63;;;2.90;;
56670;SDS011;42545;50.054;8.306;2023-04-05T16:13:01;4.30;;;3.25;;
56670;SDS011;42545;50.054;8.306;2023-04-05T16:15:29;3.65;;;2.47;;
56670;SDS011;42545;50.054;8.306;2023-04-05T16:17:56;3.65;;;2.00;;
56670;SDS011;42545;50.054;8.306;2023-04-05T16:20:23;3.38;;;1.80;;
56670;SDS011;42545;50.054;8.306;2023-04-05T16:22:50;4.47;;;3.33;;
56670;SDS011;42545;50.054;8.306;2023-04-05T16:25:17;3.05;;;2.22;;
56670;SDS011;42545;50.054;8.306;2023-04-05T16:27:44;2.33;;;1.80;;
56670;SDS011;42545;50.054;8.306;2023-04-05T16:30:10;3.25;;;1.90;;
56670;SDS011;42545;50.054;8.306;2023-04-05T16:32:39;2.72;;;2.00;;
56670;SDS011;42545;50.054;8.306;2023-04-05T16:35:06;4.43;;;2.00;;
56670;SDS011;42545;50.054;8.306;2023-04-05T16:37:33;2.92;;;2.22;;
56670;SDS011;42545;50.054;8.306;2023-04-05T16:39:59;2.92;;;1.85;;
56670;SDS011;42545;50.054;8.306;2023-04-05T16:42:27;3.47;;;1.85;;
56670;SDS011;42545;50.054;8.306;2023-04-05T16:44:53;2.10;;;1.65;;
56670;SDS011;42545;50.054;8.306;2023-04-05T16:47:20;3.55;;;1.90;;
56670;SDS011;42545;50.054;8.306;2023-04-05T16:49:48;6.78;;;2.50;;
56670;SDS011;42545;50.054;8.306;2023-04-05T16:52:15;2.03;;;1.60;;
56670;SDS011;42545;50.054;8.306;2023-04-05T16:54:42;2.15;;;1.58;;
56670;SDS011;42545;50.054;8.306;2023-04-05T16:57:08;3.42;;;1.92;;
56670;SDS011;42545;50.054;8.306;2023-04-05T16:59:35;2.08;;;1.60;;
56670;SDS011;42545;50.054;8.306;2023-04-05T17:02:02;1.80;;;1.50;;
56670;SDS011;42545;50.054;8.306;2023-04-05T17:04:28;1.73;;;1.30;;
56670;SDS011;42545;50.054;8.306;2023-04-05T17:06:56;2.33;;;1.42;;
56670;SDS011;42545;50.054;8.306;2023-04-05T17:09:23;3.85;;;1.40;;
56670;SDS011;42545;50.054;8.306;2023-04-05T17:11:53;1.48;;;1.20;;
56670;SDS011;42545;50.054;8.306;2023-04-05T17:14:19;1.45;;;1.10;;
56670;SDS011;42545;50.054;8.306;2023-04-05T17:16:46;1.13;;;0.90;;
56670;SDS011;42545;50.054;8.306;2023-04-05T17:19:13;1.45;;;1.08;;
56670;SDS011;42545;50.054;8.306;2023-04-05T17:21:40;1.48;;;1.10;;
56670;SDS011;42545;50.054;8.306;2023-04-05T17:24:10;0.88;;;0.80;;
56670;SDS011;42545;50.054;8.306;2023-04-05T17:26:37;0.75;;;0.75;;
56670;SDS011;42545;50.054;8.306;2023-04-05T17:29:04;1.27;;;0.93;;
56670;SDS011;42545;50.054;8.306;2023-04-05T17:31:31;0.88;;;0.70;;
56670;SDS011;42545;50.054;8.306;2023-04-05T17:33:58;0.82;;;0.80;;
56670;SDS011;42545;50.054;8.306;2023-04-05T17:36:25;0.88;;;0.88;;
56670;SDS011;42545;50.054;8.306;2023-04-05T17:38:52;0.75;;;0.73;;
56670;SDS011;42545;50.054;8.306;2023-04-05T17:41:20;0.55;;;0.55;;
56670;SDS011;42545;50.054;8.306;2023-04-05T17:43:47;0.63;;;0.63;;
56670;SDS011;42545;50.054;8.306;2023-04-05T17:46:13;0.80;;;0.80;;
56670;SDS011;42545;50.054;8.306;2023-04-05T17:48:40;0.80;;;0.80;;
56670;SDS011;42545;50.054;8.306;2023-04-05T17:51:08;1.10;;;0.70;;
56670;SDS011;42545;50.054;8.306;2023-04-05T17:53:35;0.50;;;0.50;;
56670;SDS011;42545;50.054;8.306;2023-04-05T17:56:01;0.60;;;0.60;;
56670;SDS011;42545;50.054;8.306;2023-04-05T17:58:29;0.93;;;0.90;;
56670;SDS011;42545;50.054;8.306;2023-04-05T18:00:56;0.70;;;0.70;;
56670;SDS011;42545;50.054;8.306;2023-04-05T18:03:23;1.23;;;1.13;;
56670;SDS011;42545;50.054;8.306;2023-04-05T18:05:51;1.30;;;0.93;;
56670;SDS011;42545;50.054;8.306;2023-04-05T18:08:19;2.15;;;1.00;;
56670;SDS011;42545;50.054;8.306;2023-04-05T18:10:47;0.77;;;0.68;;
56670;SDS011;42545;50.054;8.306;2023-04-05T18:13:14;1.42;;;1.02;;
56670;SDS011;42545;50.054;8.306;2023-04-05T18:15:43;0.98;;;0.88;;
56670;SDS011;42545;50.054;8.306;2023-04-05T18:18:09;2.30;;;1.30;;
56670;SDS011;42545;50.054;8.306;2023-04-05T18:20:36;2.53;;;1.60;;
56670;SDS011;42545;50.054;8.306;2023-04-05T18:23:04;1.50;;;0.98;;
56670;SDS011;42545;50.054;8.306;2023-04-05T18:25:32;1.27;;;1.17;;
56670;SDS011;42545;50.054;8.306;2023-04-05T18:27:58;1.52;;;1.10;;
56670;SDS011;42545;50.054;8.306;2023-04-05T18:30:25;2.10;;;1.30;;
56670;SDS011;42545;50.054;8.306;2023-04-05T18:32:54;1.40;;;1.00;;
56670;SDS011;42545;50.054;8.306;2023-04-05T18:35:20;1.17;;;0.77;;
56670;SDS011;42545;50.054;8.306;2023-04-05T18:37:47;1.95;;;0.95;;
56670;SDS011;42545;50.054;8.306;2023-04-05T18:40:14;1.60;;;1.20;;
56670;SDS011;42545;50.054;8.306;2023-04-05T18:42:41;1.23;;;0.80;;
56670;SDS011;42545;50.054;8.306;2023-04-05T18:45:09;1.08;;;0.70;;
56670;SDS011;42545;50.054;8.306;2023-04-05T18:47:36;1.30;;;0.90;;
56670;SDS011;42545;50.054;8.306;2023-04-05T18:50:06;1.35;;;0.80;;
56670;SDS011;42545;50.054;8.306;2023-04-05T18:55:01;1.10;;;1.00;;
56670;SDS011;42545;50.054;8.306;2023-04-05T18:57:28;0.73;;;0.70;;
56670;SDS011;42545;50.054;8.306;2023-04-05T18:59:55;1.40;;;0.80;;
56670;SDS011;42545;50.054;8.306;2023-04-05T19:02:21;1.25;;;0.90;;
56670;SDS011;42545;50.054;8.306;2023-04-05T19:04:48;0.98;;;0.80;;
56670;SDS011;42545;50.054;8.306;2023-04-05T19:07:17;0.95;;;0.80;;
56670;SDS011;42545;50.054;8.306;2023-04-05T19:09:43;1.25;;;0.90;;
56670;SDS011;42545;50.054;8.306;2023-04-05T19:12:10;1.13;;;0.80;;
56670;SDS011;42545;50.054;8.306;2023-04-05T19:14:37;0.75;;;0.70;;
56670;SDS011;42545;50.054;8.306;2023-04-05T19:17:04;1.33;;;1.17;;
56670;SDS011;42545;50.054;8.306;2023-04-05T19:19:30;0.85;;;0.63;;
56670;SDS011;42545;50.054;8.306;2023-04-05T19:21:57;0.82;;;0.60;;
56670;SDS011;42545;50.054;8.306;2023-04-05T19:24:26;1.27;;;1.17;;
56670;SDS011;42545;50.054;8.306;2023-04-05T19:26:53;0.73;;;0.63;;
56670;SDS011;42545;50.054;8.306;2023-04-05T19:29:20;0.60;;;0.60;;
56670;SDS011;42545;50.054;8.306;2023-04-05T19:31:47;1.00;;;0.70;;
56670;SDS011;42545;50.054;8.306;2023-04-05T19:34:14;0.70;;;0.60;;
56670;SDS011;42545;50.054;8.306;2023-04-05T19:36:41;0.63;;;0.60;;
56670;SDS011;42545;50.054;8.306;2023-04-05T19:39:09;1.25;;;0.70;;
56670;SDS011;42545;50.054;8.306;2023-04-05T19:41:37;0.68;;;0.68;;
56670;SDS011;42545;50.054;8.306;2023-04-05T19:44:06;0.80;;;0.70;;
56670;SDS011;42545;50.054;8.306;2023-04-05T19:46:35;0.50;;;0.50;;
56670;SDS011;42545;50.054;8.306;2023-04-05T19:49:06;0.50;;;0.50;;
56670;SDS011;42545;50.054;8.306;2023-04-05T19:51:34;1.02;;;0.60;;
56670;SDS011;42545;50.054;8.306;2023-04-05T19:54:03;0.63;;;0.63;;
56670;SDS011;42545;50.054;8.306;2023-04-05T19:56:33;0.88;;;0.70;;
56670;SDS011;42545;50.054;8.306;2023-04-05T19:59:04;0.93;;;0.80;;
56670;SDS011;42545;50.054;8.306;2023-04-05T20:01:54;0.93;;;0.82;;
56670;SDS011;42545;50.054;8.306;2023-04-05T20:04:21;0.98;;;0.88;;
56670;SDS011;42545;50.054;8.306;2023-04-05T20:06:49;0.90;;;0.70;;
56670;SDS011;42545;50.054;8.306;2023-04-05T20:09:19;0.88;;;0.73;;
56670;SDS011;42545;50.054;8.306;2023-04-05T20:11:48;0.93;;;0.82;;
56670;SDS011;42545;50.054;8.306;2023-04-05T20:14:18;1.13;;;0.90;;
56670;SDS011;42545;50.054;8.306;2023-04-05T20:16:49;0.80;;;0.75;;
56670;SDS011;42545;50.054;8.306;2023-04-05T20:19:16;0.70;;;0.70;;
56670;SDS011;42545;50.054;8.306;2023-04-05T20:21:51;1.50;;;1.10;;
56670;SDS011;42545;50.054;8.306;2023-04-05T20:24:19;1.45;;;1.00;;
56670;SDS011;42545;50.054;8.306;2023-04-05T20:26:47;1.65;;;1.23;;
56670;SDS011;42545;50.054;8.306;2023-04-05T20:29:14;1.15;;;1.00;;
56670;SDS011;42545;50.054;8.306;2023-04-05T20:31:46;1.23;;;1.00;;
56670;SDS011;42545;50.054;8.306;2023-04-05T20:34:14;1.50;;;1.05;;
56670;SDS011;42545;50.054;8.306;2023-04-05T20:36:46;1.63;;;0.80;;
56670;SDS011;42545;50.054;8.306;2023-04-05T20:39:15;1.42;;;1.05;;
56670;SDS011;42545;50.054;8.306;2023-04-05T20:41:42;1.33;;;0.90;;
56670;SDS011;42545;50.054;8.306;2023-04-05T20:44:09;2.42;;;1.42;;
56670;SDS011;42545;50.054;8.306;2023-04-05T20:46:36;2.03;;;1.42;;
56670;SDS011;42545;50.054;8.306;2023-04-05T20:49:05;1.60;;;1.50;;
56670;SDS011;42545;50.054;8.306;2023-04-05T20:51:32;1.55;;;1.20;;
56670;SDS011;42545;50.054;8.306;2023-04-05T20:53:58;1.25;;;1.00;;
56670;SDS011;42545;50.054;8.306;2023-04-05T20:56:26;1.60;;;1.17;;
56670;SDS011;42545;50.054;8.306;2023-04-05T20:58:53;1.17;;;1.05;;
56670;SDS011;42545;50.054;8.306;2023-04-05T21:01:20;1.98;;;1.50;;
56670;SDS011;42545;50.054;8.306;2023-04-05T21:03:47;2.15;;;1.30;;
56670;SDS011;42545;50.054;8.306;2023-04-05T21:06:15;1.63;;;1.25;;
56670;SDS011;42545;50.054;8.306;2023-04-05T21:08:42;1.38;;;1.02;;
56670;SDS011;42545;50.054;8.306;2023-04-05T21:11:09;1.90;;;1.13;;
56670;SDS011;42545;50.054;8.306;2023-04-05T21:13:36;2.00;;;1.27;;
56670;SDS011;42545;50.054;8.306;2023-04-05T21:16:03;1.92;;;1.38;;
56670;SDS011;42545;50.054;8.306;2023-04-05T21:18:30;1.50;;;1.00;;
56670;SDS011;42545;50.054;8.306;2023-04-05T21:20:57;1.55;;;0.98;;
56670;SDS011;42545;50.054;8.306;2023-04-05T21:23:27;1.30;;;1.10;;
56670;SDS011;42545;50.054;8.306;2023-04-05T21:25:54;2.33;;;1.50;;
56670;SDS011;42545;50.054;8.306;2023-04-05T21:28:22;2.15;;;1.50;;
56670;SDS011;42545;50.054;8.306;2023-04-05T21:30:50;2.03;;;1.60;;
56670;SDS011;42545;50.054;8.306;2023-04-05T21:33:17;2.85;;;1.70;;
56670;SDS011;42545;50.054;8.306;2023-04-05T21:35:44;2.47;;;1.50;;
56670;SDS011;42545;50.054;8.306;2023-04-05T21:38:11;2.72;;;1.90;;
56670;SDS011;42545;50.054;8.306;2023-04-05T21:40:40;2.90;;;1.60;;
56670;SDS011;42545;50.054;8.306;2023-04-05T21:43:08;2.15;;;1.45;;
56670;SDS011;42545;50.054;8.306;2023-04-05T21:45:34;2.35;;;1.58;;
56670;SDS011;42545;50.054;8.306;2023-04-05T21:48:01;2.90;;;1.60;;
56670;SDS011;42545;50.054;8.306;2023-04-05T21:50:28;1.80;;;1.30;;
56670;SDS011;42545;50.054;8.306;2023-04-05T21:52:55;1.65;;;1.27;;
56670;SDS011;42545;50.054;8.306;2023-04-05T21:55:22;1.75;;;1.30;;
56670;SDS011;42545;50.054;8.306;2023-04-05T21:57:50;2.38;;;1.25;;
56670;SDS011;42545;50.054;8.306;2023-04-05T22:00:17;1.20;;;1.10;;
56670;SDS011;42545;50.054;8.306;2023-04-05T22:02:44;2.30;;;1.50;;
56670;SDS011;42545;50.054;8.306;2023-04-05T22:05:11;1.88;;;1.20;;
56670;SDS011;42545;50.054;8.306;2023-04-05T22:07:37;1.50;;;1.00;;
56670;SDS011;42545;50.054;8.306;2023-04-05T22:10:05;1.65;;;1.10;;
56670;SDS011;42545;50.054;8.306;2023-04-05T22:12:32;1.38;;;0.95;;
56670;SDS011;42545;50.054;8.306;2023-04-05T22:15:01;1.30;;;0.90;;
56670;SDS011;42545;50.054;8.306;2023-04-05T22:17:28;2.08;;;1.20;;
56670;SDS011;42545;50.054;8.306;2023-04-05T22:19:55;1.10;;;1.00;;
56670;SDS011;42545;50.054;8.306;2023-04-05T22:22:22;1.90;;;1.10;;
56670;SDS011;42545;50.054;8.306;2023-04-05T22:24:50;1.45;;;0.90;;
56670;SDS011;42545;50.054;8.306;2023-04-05T22:27:17;1.05;;;0.70;;
56670;SDS011;42545;50.054;8.306;2023-04-05T22:29:44;1.35;;;1.08;;
56670;SDS011;42545;50.054;8.306;2023-04-05T22:32:14;2.53;;;1.05;;
56670;SDS011;42545;50.054;8.306;2023-04-05T22:34:41;1.55;;;0.90;;
56670;SDS011;42545;50.054;8.306;2023-04-05T22:37:09;1.20;;;0.80;;
56670;SDS011;42545;50.054;8.306;2023-04-05T22:39:36;0.75;;;0.75;;
56670;SDS011;42545;50.054;8.306;2023-04-05T22:42:03;1.50;;;0.95;;
56670;SDS011;42545;50.054;8.306;2023-04-05T22:44:30;1.10;;;0.80;;
56670;SDS011;42545;50.054;8.306;2023-04-05T22:46:57;1.05;;;0.95;;
56670;SDS011;42545;50.054;8.306;2023-04-05T22:49:25;0.95;;;0.70;;
56670;SDS011;42545;50.054;8.306;2023-04-05T22:51:52;0.57;;;0.57;;
56670;SDS011;42545;50.054;8.306;2023-04-05T22:54:19;0.60;;;0.60;;
56670;SDS011;42545;50.054;8.306;2023-04-05T22:56:46;2.45;;;1.35;;
56670;SDS011;42545;50.054;8.306;2023-04-05T22:59:13;2.08;;;1.50;;
56670;SDS011;42545;50.054;8.306;2023-04-05T23:01:40;1.58;;;1.17;;
56670;SDS011;42545;50.054;8.306;2023-04-05T23:04:07;2.88;;;1.95;;
56670;SDS011;42545;50.054;8.306;2023-04-05T23:06:35;2.10;;;1.50;;
56670;SDS011;42545;50.054;8.306;2023-04-05T23:09:02;3.88;;;2.40;;
56670;SDS011;42545;50.054;8.306;2023-04-05T23:11:31;1.92;;;1.38;;
56670;SDS011;42545;50.054;8.306;2023-04-05T23:13:58;1.73;;;1.40;;
56670;SDS011;42545;50.054;8.306;2023-04-05T23:16:25;3.45;;;2.30;;
56670;SDS011;42545;50.054;8.306;2023-04-05T23:18:52;2.75;;;2.00;;
56670;SDS011;42545;50.054;8.306;2023-04-05T23:21:19;2.97;;;1.70;;
56670;SDS011;42545;50.054;8.306;2023-04-05T23:23:47;2.80;;;1.92;;
56670;SDS011;42545;50.054;8.306;2023-04-05T23:26:14;3.22;;;1.70;;
56670;SDS011;42545;50.054;8.306;2023-04-05T23:28:40;2.45;;;1.50;;
56670;SDS011;42545;50.054;8.306;2023-04-05T23:31:07;2.83;;;1.48;;
56670;SDS011;42545;50.054;8.306;2023-04-05T23:33:34;1.73;;;1.27;;
56670;SDS011;42545;50.054;8.306;2023-04-05T23:36:01;2.67;;;1.13;;
56670;SDS011;42545;50.054;8.306;2023-04-05T23:38:28;1.80;;;1.20;;
56670;SDS011;42545;50.054;8.306;2023-04-05T23:40:56;1.80;;;1.20;;
56670;SDS011;42545;50.054;8.306;2023-04-05T23:43:23;1.23;;;0.98;;
56670;SDS011;42545;50.054;8.306;2023-04-05T23:45:50;1.77;;;0.93;;
56670;SDS011;42545;50.054;8.306;2023-04-05T23:48:17;1.92;;;0.95;;
56670;SDS011;42545;50.054;8.306;2023-04-05T23:50:43;1.33;;;1.10;;
56670;SDS011;42545;50.054;8.306;2023-04-05T23:53:10;1.50;;;1.20;;
56670;SDS011;42545;50.054;8.306;2023-04-05T23:55:37;3.60;;;1.80;;
56670;SDS011;42545;50.054;8.306;2023-04-05T23:58:07;6.22;;;3.33;;
